Diplomat, Indiana
Current Conditions -  °F | °C
As of 4:54 AM on Thursday 27 Nov 2014 (Local Time) from KFWA Reporting Station
Overcast Overcast  
Wind Chill: 23°   Ceiling: 4200
Heat Index: 28°   Visibility: 10mi
Dew Point: 23°   Wind: 5mph
Humidity: 81%   Direction: 320°NW
Pressure: 30.15"   Gusts: NA
Location:  41.0028°N, 85.0396°W
Report Text: KFWA 270954Z 32004KT 10SM SCT035 OVC042 M02/M05 A3015 RMK AO2 SNB36E47 SLP219 P0000 T10221050
Loading
Personal Weather Stations






























Interactive Weather Map New forecast layout! Learn more

10-Day Weather Forecast

Advertisements
Track Severe Weather on mobile